Lightsey, Mississippi
Current Conditions -  °F | °C
As of 3:35 PM on Saturday 22 Nov 2014 (Local Time) from KPIB Reporting Station
Scattered Clouds Scattered Clouds  
Wind Chill: 66°   Ceiling: Unl
Heat Index: 66°   Visibility: 10mi
Dew Point: 52°   Wind: 3mph
Humidity: 60%   Direction: 80°E
Pressure: 30.1"   Gusts: NA
Location:  31.6875°N, 89.1116°W
Report Text: KPIB 222135Z AUTO 08003KT 10SM SCT037 19/11 A3010 RMK AO1
Loading
Personal Weather Stations






























Interactive Weather Map New forecast layout! Learn more

10-Day Weather Forecast

Advertisements
Track Severe Weather on mobile